DW2229 Weather Reports


Display with metric or nautical units.
time (UTC)temp
F
wind
direction
speed
MPH
gust
MPH
rain 1hr
in
rain 24hr
in
rain mn
in
humidity
%
barometer
mb
20190218074344 68 317 5.0 12.0 0.00 0.00 0.00 1 1013.9
20190218073345 67 267 0.0 3.0 0.00 0.00 0.00 1 1013.7
20190218072347 67 164 0.0 3.0 0.00 0.00 0.00 1 1013.5
20190218071327 67 164 1.0 4.0 0.00 0.00 0.00 1 1013.4
20190218070329 67 164 0.0 2.0 0.00 0.00 0.00 1 1013.4
20190218065329 67 164 1.0 6.0 0.00 0.00 0.00 1 1013.4
20190218064330 67 169 2.0 5.0 0.00 0.00 0.00 1 1013.3
20190218063329 67 167 2.0 6.0 0.00 0.00 0.00 1 1013.2
20190218062335 68 188 1.0 5.0 0.00 0.00 0.00 1 1013.2
20190218061335 67 183 1.0 4.0 0.00 0.00 0.00 1 1013.1
20190218060338 68 168 1.0 5.0 0.00 0.00 0.00 1 1013.0
20190218055341 67 166 2.0 6.0 0.00 0.00 0.00 1 1013.0
20190218054346 67 167 3.0 6.0 0.00 0.00 0.00 1 1012.9
20190218053346 67 169 2.0 5.0 0.00 0.00 0.00 1 1012.8
20190218052345 68 154 3.0 8.0 0.00 0.00 0.00 1 1012.8
20190218051345 67 170 4.0 7.0 0.00 0.00 0.00 1 1012.9
20190218050347 68 166 5.0 9.0 0.00 0.00 0.00 1 1012.9
20190218045348 67 159 4.0 7.0 0.00 0.00 0.00 1 1012.7
20190218044346 67 151 3.0 8.0 0.00 0.00 0.00 1 1012.7
20190218043328 67 157 4.0 7.0 0.00 0.00 0.00 1 1012.6
20190218042334 67 155 4.0 7.0 0.00 0.00 0.00 1 1012.6
20190218041335 67 159 4.0 7.0 0.00 0.00 0.00 1 1012.7
20190218040337 67 156 2.0 6.0 0.00 0.00 0.00 1 1012.7
20190218035337 67 155 1.0 5.0 0.00 0.00 0.00 1 1012.7
20190218034337 67 154 2.0 6.0 0.00 0.00 0.00 1 1012.7
20190218033333 68 154 3.0 7.0 0.00 0.00 0.00 1 1012.5
20190218032337 68 158 4.0 7.0 0.00 0.00 0.00 1 1012.5
20190218031338 68 157 4.0 6.0 0.00 0.00 0.00 1 1012.6
20190218030343 68 159 3.0 6.0 0.00 0.00 0.00 1 1012.5
20190218025345 68 157 3.0 7.0 0.00 0.00 0.00 1 1012.4
20190218024346 68 159 3.0 8.0 0.00 0.00 0.00 1 1012.5
20190218023332 68 160 5.0 7.0 0.00 0.00 0.00 1 1012.4
20190218022337 68 159 3.0 6.0 0.00 0.00 0.00 1 1012.2
20190218021336 68 159 4.0 7.0 0.00 0.00 0.00 1 1012.2
20190218020334 68 153 4.0 7.0 0.00 0.00 0.00 1 1012.0
20190218015330 68 153 4.0 7.0 0.00 0.00 0.00 1 1012.1
20190218014344 68 157 5.0 7.0 0.00 0.00 0.00 1 1012.0
20190218013343 68 157 4.0 6.0 0.00 0.00 0.00 1 1011.9
20190218012337 68 155 3.0 7.0 0.00 0.00 0.00 1 1011.9
20190218011333 68 148 3.0 7.0 0.00 0.00 0.00 1 1011.7
20190218010333 68 145 4.0 8.0 0.00 0.00 0.00 1 1011.6
20190218005332 68 156 4.0 7.0 0.00 0.00 0.00 1 1011.4
20190218004331 68 144 3.0 5.0 0.00 0.00 0.00 1 1011.4
20190218003348 68 155 3.0 6.0 0.00 0.00 0.00 1 1011.2
20190218002348 68 159 3.0 5.0 0.00 0.00 0.00 1 1011.3
20190218001343 69 159 3.0 6.0 0.00 0.00 0.00 1 1011.2
20190218000342 69 144 3.0 5.0 0.00 0.00 0.00 1 1011.2
20190217235341 69 146 1.0 5.0 0.00 0.00 0.00 1 1011.1
20190217234343 69 145 3.0 8.0 0.00 0.00 0.00 1 1011.0
20190217233340 69 145 5.0 9.0 0.00 0.00 0.00 1 1010.9
20190217232337 69 146 4.0 9.0 0.00 0.00 0.00 1 1010.7
20190217231332 70 134 4.0 9.0 0.00 0.00 0.00 1 1010.7
20190217230330 70 136 5.0 9.0 0.00 0.00 0.00 1 1010.6
20190217225330 70 146 4.0 10.0 0.00 0.00 0.00 1 1010.6
20190217224345 70 139 6.0 10.0 0.00 0.00 0.00 1 1010.7
20190217223345 70 148 3.0 8.0 0.00 0.00 0.00 1 1010.7
20190217222342 70 123 3.0 9.0 0.00 0.00 0.00 1 1010.5
20190217221338 70 134 4.0 9.0 0.00 0.00 0.00 1 1010.5
20190217220338 71 144 4.0 10.0 0.00 0.00 0.00 1 1010.3
20190217215335 71 132 8.0 11.0 0.00 0.00 0.00 1 1010.4
20190217214330 71 135 5.0 11.0 0.00 0.00 0.00 1 1010.3
20190217213328 71 136 5.0 11.0 0.00 0.00 0.00 1 1010.5
20190217212331 71 131 6.0 11.0 0.00 0.00 0.00 1 1010.4
20190217211346 72 144 7.0 12.0 0.00 0.00 0.00 1 1010.5
20190217210347 72 136 6.0 11.0 0.00 0.00 0.00 1 1010.6
20190217205343 72 134 4.0 9.0 0.00 0.00 0.00 1 1010.6
20190217204338 72 130 4.0 10.0 0.00 0.00 0.00 1 1010.6
20190217203333 72 131 7.0 10.0 0.00 0.00 0.00 1 1010.5
20190217202331 72 128 5.0 10.0 0.00 0.00 0.00 1 1010.6
20190217201346 72 127 3.0 10.0 0.00 0.00 0.00 1 1010.6
20190217200345 72 142 5.0 9.0 0.00 0.00 0.00 1 1010.6
20190217195343 71 99 5.0 9.0 0.00 0.00 0.00 1 1010.6
20190217194340 72 123 5.0 9.0 0.00 0.00 0.00 1 1010.7
20190217193337 72 126 5.0 10.0 0.00 0.00 0.00 1 1010.7
20190217192335 72 132 6.0 10.0 0.00 0.00 0.00 1 1010.8
20190217191334 72 113 5.0 11.0 0.00 0.00 0.00 1 1010.7
20190217190330 72 121 6.0 11.0 0.00 0.00 0.00 1 1010.8
20190217185333 71 132 4.0 10.0 0.00 0.00 0.00 1 1010.9
20190217184328 71 139 5.0 9.0 0.00 0.00 0.00 1 1010.8
20190217183331 71 130 4.0 9.0 0.00 0.00 0.00 1 1011.0
20190217182332 70 137 6.0 13.0 0.00 0.00 0.00 1 1011.1
20190217181334 70 126 8.0 12.0 0.00 0.00 0.00 1 1011.2
20190217180335 70 128 8.0 14.0 0.00 0.00 0.00 1 1011.1
20190217175329 70 134 8.0 13.0 0.00 0.00 0.00 1 1011.2
20190217174331 70 125 7.0 13.0 0.00 0.00 0.00 1 1011.4
20190217173331 70 122 5.0 13.0 0.00 0.00 0.00 1 1011.6
20190217172347 70 117 7.0 12.0 0.00 0.00 0.00 1 1011.7
20190217171342 71 117 7.0 11.0 0.00 0.00 0.00 1 1011.6
20190217170341 70 152 8.0 13.0 0.00 0.00 0.00 1 1011.7
20190217165337 70 148 7.0 12.0 0.00 0.00 0.00 1 1011.7
20190217164330 70 150 9.0 14.0 0.00 0.00 0.00 1 1011.7
20190217163329 70 143 8.0 13.0 0.00 0.00 0.00 1 1011.6
20190217162346 69 141 7.0 12.0 0.00 0.00 0.00 1 1011.7
20190217161342 69 138 8.0 12.0 0.00 0.00 0.00 1 1011.6
20190217160342 68 144 8.0 13.0 0.00 0.00 0.00 1 1011.8
20190217155339 68 138 9.0 13.0 0.00 0.00 0.00 1 1011.8
20190217154333 68 138 7.0 11.0 0.00 0.00 0.00 1 1011.8
20190217153331 68 142 4.0 10.0 0.00 0.00 0.00 1 1011.8
20190217152348 68 141 4.0 9.0 0.00 0.00 0.00 1 1011.7
20190217151347 67 137 5.0 9.0 0.00 0.00 0.00 1 1011.7
20190217150344 67 152 6.0 10.0 0.00 0.00 0.00 1 1011.6
20190217145346 67 153 6.0 9.0 0.00 0.00 0.00 1 1011.4
20190217144343 67 143 4.0 8.0 0.00 0.00 0.00 1 1011.4
20190217143342 66 157 3.0 7.0 0.00 0.00 0.00 1 1011.3
20190217142339 67 154 2.0 7.0 0.00 0.00 0.00 1 1011.2
20190217141338 66 151 2.0 6.0 0.00 0.00 0.00 1 1011.3
20190217140340 66 161 3.0 8.0 0.00 0.00 0.00 1 1011.3
20190217135338 66 149 6.0 9.0 0.00 0.00 0.00 1 1011.1
20190217134335 65 159 5.0 9.0 0.00 0.00 0.00 1 1010.9
20190217133334 65 165 6.0 9.0 0.00 0.00 0.00 1 1010.8
20190217132331 65 155 4.0 7.0 0.00 0.00 0.00 1 1010.8
20190217131328 65 157 1.0 5.0 0.00 0.00 0.00 1 1010.7
20190217130331 65 153 1.0 5.0 0.00 0.00 0.00 1 1010.6
20190217125332 65 153 3.0 8.0 0.00 0.00 0.00 1 1010.3
20190217124330 65 157 2.0 6.0 0.00 0.00 0.00 1 1010.1
20190217123346 65 151 4.0 10.0 0.00 0.00 0.00 1 1009.9
20190217122344 65 148 5.0 9.0 0.00 0.00 0.00 1 1009.7
20190217121341 65 144 4.0 8.0 0.00 0.00 0.00 1 1009.5
20190217120344 65 150 1.0 6.0 0.00 0.00 0.00 1 1009.5
20190217115340 65 149 3.0 6.0 0.00 0.00 0.00 1 1009.7
20190217114346 65 151 3.0 7.0 0.00 0.00 0.00 1 1009.9
20190217113347 65 155 4.0 8.0 0.00 0.00 0.00 1 1009.8
20190217112344 65 158 3.0 8.0 0.00 0.00 0.00 1 1009.7
20190217111342 65 156 3.0 8.0 0.00 0.00 0.00 1 1009.6
20190217110338 65 157 4.0 8.0 0.00 0.00 0.00 1 1009.2
20190217105336 65 157 6.0 8.0 0.00 0.00 0.00 1 1009.2
20190217104331 65 163 4.0 10.0 0.00 0.00 0.00 1 1009.3
20190217103332 65 157 3.0 7.0 0.00 0.00 0.00 1 1009.3
20190217102328 65 164 1.0 5.0 0.00 0.00 0.00 1 1009.4
20190217101327 65 151 1.0 4.0 0.00 0.00 0.00 1 1009.5
20190217100345 65 144 0.0 4.0 0.00 0.00 0.00 1 1009.4
20190217095342 65 144 1.0 6.0 0.00 0.00 0.00 1 1009.4
20190217094341 65 140 1.0 5.0 0.00 0.00 0.00 1 1009.4
20190217093341 65 145 1.0 5.0 0.00 0.00 0.00 1 1009.2
20190217092348 65 144 1.0 5.0 0.00 0.00 0.00 1 1009.3
20190217091347 65 149 1.0 5.0 0.00 0.00 0.00 1 1009.2
20190217090345 65 150 2.0 8.0 0.00 0.00 0.00 1 1009.3
20190217085343 65 151 1.0 5.0 0.00 0.00 0.00 1 1009.2
20190217084351 65 147 1.0 5.0 0.00 0.00 0.00 1 1009.4
20190217083355 65 146 2.0 7.0 0.00 0.00 0.00 1 1009.3
20190217082337 65 152 3.0 9.0 0.00 0.00 0.00 1 1009.4
20190217081354 65 156 2.0 5.0 0.00 0.00 0.00 1 1009.3
20190217080345 65 153 0.0 0.0 0.00 0.00 0.00 1 1009.4
20190217075347 64 153 0.0 1.0 0.00 0.00 0.00 1 1009.3